Time;durP1;ratioP1;P1;durP2;ratioP2;P2;SDS_P1;SDS_P2;PMS_P1;PMS_P2;Temp;Humidity;BMP_temperature;BMP_pressure;BME280_temperature;BME280_humidity;BME280_pressure;Samples;Min_cycle;Max_cycle;Signal;HPM_P1;HPM_P2
2023/12/06 00:00:55;;;;;;;;;78.33;62.00;;;;;1.78;100.00;99387.94;6307233;20;2873199;-51
2023/12/06 00:03:24;;;;;;;;;88.00;65.33;;;;;1.75;100.00;99386.25;6310569;20;3644112;-50
2023/12/06 00:05:54;;;;;;;;;79.00;60.00;;;;;1.78;100.00;99381.78;6278408;20;2882620;-46
2023/12/06 00:08:24;;;;;;;;;83.00;60.33;;;;;1.60;100.00;99380.56;6314519;20;3636836;-49
2023/12/06 00:10:54;;;;;;;;;82.67;60.33;;;;;1.74;100.00;99373.06;6311020;20;3647209;-49
2023/12/06 00:13:24;;;;;;;;;82.33;62.00;;;;;1.72;100.00;99372.25;6315270;20;3646087;-50
2023/12/06 00:15:54;;;;;;;;;76.67;59.00;;;;;1.74;100.00;99375.72;6310931;20;3636716;-52
2023/12/06 00:18:24;;;;;;;;;77.33;57.33;;;;;1.76;100.00;99376.53;6311361;20;3640922;-47
2023/12/06 00:20:55;;;;;;;;;77.67;61.33;;;;;1.70;100.00;99374.06;6309382;20;3627302;-50
2023/12/06 00:23:24;;;;;;;;;75.33;58.00;;;;;1.64;100.00;99374.28;6314272;20;2880597;-45
2023/12/06 00:25:55;;;;;;;;;81.33;59.00;;;;;1.76;100.00;99373.88;6312665;20;3645027;-51
2023/12/06 00:28:24;;;;;;;;;76.00;57.33;;;;;1.65;100.00;99378.63;6312498;20;2877381;-48
2023/12/06 00:30:54;;;;;;;;;82.33;59.33;;;;;1.81;100.00;99366.66;6308585;20;3655428;-48
2023/12/06 00:33:24;;;;;;;;;79.33;61.67;;;;;1.66;100.00;99373.31;6312141;20;3633559;-45
2023/12/06 00:35:55;;;;;;;;;78.00;57.00;;;;;1.73;100.00;99366.03;6312433;20;3649248;-46
2023/12/06 00:38:25;;;;;;;;;84.00;62.00;;;;;1.38;100.00;99375.03;6311223;20;3656496;-48
2023/12/06 00:40:56;;;;;;;;;74.33;56.67;;;;;1.64;100.00;99359.25;6309022;20;3636715;-47
2023/12/06 00:43:25;;;;;;;;;73.00;58.33;;;;;1.38;100.00;99352.09;6312361;20;2877337;-48
2023/12/06 00:45:54;;;;;;;;;71.00;47.50;;;;;1.09;100.00;99347.66;6311740;20;2874305;-46
2023/12/06 00:48:24;;;;;;;;;77.67;58.00;;;;;1.61;100.00;99347.91;6277109;20;3645115;-47
2023/12/06 00:50:54;;;;;;;;;83.00;58.67;;;;;1.74;100.00;99338.69;6309408;20;3652346;-48
2023/12/06 00:53:24;;;;;;;;;78.33;60.33;;;;;1.62;100.00;99341.69;6311587;20;3645039;-50
2023/12/06 00:55:53;;;;;;;;;83.67;59.00;;;;;1.59;100.00;99352.38;6312181;20;3654395;-46
2023/12/06 00:58:23;;;;;;;;;79.00;60.00;;;;;1.57;100.00;99347.13;6310830;20;3642317;-50
2023/12/06 01:00:53;;;;;;;;;74.33;53.67;;;;;1.61;100.00;99348.78;6310166;20;2888872;-50
2023/12/06 01:03:22;;;;;;;;;74.50;60.00;;;;;1.87;100.00;99345.31;6309675;20;2871230;-49
2023/12/06 01:05:55;;;;;;;;;86.33;62.67;;;;;1.08;100.00;99341.50;6279847;20;3661721;-46
2023/12/06 01:08:27;;;;;;;;;73.00;60.00;;;;;1.42;100.00;99347.56;6307061;20;2875404;-48
2023/12/06 01:10:57;;;;;;;;;81.33;58.67;;;;;1.51;100.00;99342.03;6308502;20;3645113;-50
2023/12/06 01:13:28;;;;;;;;;75.67;57.67;;;;;1.47;100.00;99335.06;6312103;20;3635804;-49
2023/12/06 01:15:57;;;;;;;;;85.67;61.33;;;;;1.29;100.00;99336.47;6308729;20;3671264;-48
2023/12/06 01:18:27;;;;;;;;;75.33;57.00;;;;;1.56;100.00;99334.81;6312140;20;3647223;-46
2023/12/06 01:20:57;;;;;;;;;78.67;58.33;;;;;1.09;100.00;99339.72;6304979;20;2895368;-47
2023/12/06 01:23:27;;;;;;;;;80.00;60.33;;;;;1.09;100.00;99345.00;6311259;20;2895063;-49
2023/12/06 01:25:57;;;;;;;;;75.67;59.00;;;;;0.98;100.00;99347.09;6308441;20;2876438;-49
2023/12/06 01:28:27;;;;;;;;;85.67;64.00;;;;;1.04;100.00;99334.56;6311800;20;3642986;-46
2023/12/06 01:30:55;;;;;;;;;74.50;60.50;;;;;1.28;100.00;99334.75;6309543;20;2862770;-49
2023/12/06 01:33:24;;;;;;;;;77.00;60.50;;;;;1.30;100.00;99333.81;6280694;20;2872105;-52
2023/12/06 01:35:54;;;;;;;;;78.00;61.00;;;;;1.47;100.00;99325.34;6274407;20;2878399;-50
2023/12/06 01:38:24;;;;;;;;;80.67;59.67;;;;;1.41;100.00;99329.97;6311577;20;2889944;-48
2023/12/06 01:40:54;;;;;;;;;73.67;56.00;;;;;1.57;100.00;99325.09;6309325;20;2883719;-52
2023/12/06 01:43:23;;;;;;;;;77.67;58.67;;;;;1.54;100.00;99334.84;6311196;20;3642013;-49
2023/12/06 01:45:54;;;;;;;;;76.00;57.67;;;;;1.43;100.00;99329.03;6308999;20;3629492;-51
2023/12/06 01:48:24;;;;;;;;;73.67;58.00;;;;;1.45;100.00;99326.31;6309606;20;2879595;-49
2023/12/06 01:50:55;;;;;;;;;79.67;59.33;;;;;1.28;100.00;99326.81;6308146;20;3639822;-51
2023/12/06 01:53:25;;;;;;;;;73.33;58.00;;;;;1.39;100.00;99322.06;6311853;20;3627341;-48
2023/12/06 01:55:55;;;;;;;;;83.33;62.67;;;;;1.53;100.00;99325.19;6309482;20;3657628;-52
2023/12/06 01:58:28;;;;;;;;;80.33;60.67;;;;;1.52;100.00;99323.44;6304973;20;2882632;-52
2023/12/06 02:00:59;;;;;;;;;81.00;61.33;;;;;1.13;100.00;99320.19;6308059;20;3638797;-52
2023/12/06 02:03:29;;;;;;;;;82.67;57.67;;;;;0.92;100.00;99308.47;6309188;20;3646097;-47
2023/12/06 02:06:02;;;;;;;;;82.33;57.67;;;;;1.35;100.00;99307.22;6311880;20;3654493;-46
2023/12/06 02:08:36;;;;;;;;;72.67;58.00;;;;;0.75;100.00;99294.88;6309125;20;2879675;-52
2023/12/06 02:11:05;;;;;;;;;83.67;61.00;;;;;1.08;100.00;99306.28;6310437;20;3653406;-51
2023/12/06 02:13:36;;;;;;;;;83.67;59.67;;;;;1.17;100.00;99299.84;6311960;20;3645031;-50
2023/12/06 02:16:07;;;;;;;;;76.33;59.00;;;;;1.50;100.00;99297.94;6307124;20;3634721;-50
2023/12/06 02:18:37;;;;;;;;;79.00;61.33;;;;;1.52;100.00;99290.84;6308247;20;2881639;-52
2023/12/06 02:21:08;;;;;;;;;81.00;61.00;;;;;1.51;100.00;99282.03;6309224;20;2880545;-52
2023/12/06 02:23:38;;;;;;;;;82.33;62.33;;;;;1.45;100.00;99263.72;6313813;20;2879471;-47
2023/12/06 02:26:06;;;;;;;;;79.50;59.50;;;;;1.30;100.00;99258.91;6309494;20;2480507;-47
2023/12/06 02:28:35;;;;;;;;;77.00;60.50;;;;;1.36;100.00;99268.41;6283076;20;2862902;-50
2023/12/06 02:31:05;;;;;;;;;80.33;60.67;;;;;0.94;100.00;99266.16;6285077;20;3636721;-46
2023/12/06 02:33:36;;;;;;;;;80.67;58.67;;;;;1.25;100.00;99272.25;6317002;20;3640859;-50
2023/12/06 02:36:09;;;;;;;;;76.67;59.00;;;;;1.29;100.00;99270.38;6312080;20;2879586;-45
2023/12/06 02:38:41;;;;;;;;;79.00;60.00;;;;;1.00;100.00;99272.13;6314324;20;2692982;-46
2023/12/06 02:41:16;;;;;;;;;71.67;57.33;;;;;1.14;100.00;99268.22;6313364;20;2865935;-47
2023/12/06 02:43:46;;;;;;;;;81.67;60.67;;;;;1.47;100.00;99261.88;6311323;20;3650239;-46
2023/12/06 02:46:16;;;;;;;;;75.67;54.33;;;;;1.43;100.00;99260.25;6313772;20;3653496;-46
2023/12/06 02:48:46;;;;;;;;;78.67;59.67;;;;;1.46;100.00;99256.66;6315144;20;2872355;-47
2023/12/06 02:51:16;;;;;;;;;78.33;58.67;;;;;1.62;100.00;99270.25;6316042;20;3635799;-49
2023/12/06 02:53:46;;;;;;;;;84.67;62.33;;;;;1.57;100.00;99269.53;6310552;20;3648323;-49
2023/12/06 02:56:16;;;;;;;;;77.00;58.00;;;;;1.43;100.00;99269.97;6310009;20;2891257;-48
2023/12/06 02:58:46;;;;;;;;;77.33;58.67;;;;;1.21;100.00;99275.91;6311723;20;3628435;-45
2023/12/06 03:01:15;;;;;;;;;86.67;61.00;;;;;1.34;100.00;99273.75;6308463;20;3660680;-49
2023/12/06 03:03:45;;;;;;;;;94.33;70.00;;;;;0.92;100.00;99268.81;6310280;20;3646204;-49
2023/12/06 03:06:16;;;;;;;;;85.67;60.67;;;;;1.14;100.00;99273.50;6277902;20;3664852;-47
2023/12/06 03:08:46;;;;;;;;;92.33;66.00;;;;;1.35;100.00;99270.22;6310114;20;3648177;-50
2023/12/06 03:11:15;;;;;;;;;86.50;63.00;;;;;1.25;100.00;99268.75;6315213;20;2896133;-48
2023/12/06 03:13:45;;;;;;;;;84.33;62.67;;;;;1.45;100.00;99262.81;6283731;20;3653493;-48
2023/12/06 03:16:14;;;;;;;;;79.33;58.67;;;;;1.63;100.00;99272.81;6312775;20;3637731;-47
2023/12/06 03:18:43;;;;;;;;;76.50;60.50;;;;;1.68;100.00;99276.19;6312993;20;2862748;-49
2023/12/06 03:21:13;;;;;;;;;91.67;70.00;;;;;1.40;100.00;99273.56;6279583;20;3652440;-50
2023/12/06 03:23:43;;;;;;;;;83.00;62.00;;;;;1.70;100.00;99269.09;6312365;20;2892163;-40
2023/12/06 03:26:13;;;;;;;;;75.00;58.00;;;;;1.64;100.00;99263.13;6314397;20;2884685;-41
2023/12/06 03:28:42;;;;;;;;;84.67;60.00;;;;;1.69;100.00;99261.22;6313635;20;3642075;-40
2023/12/06 03:31:12;;;;;;;;;94.00;69.67;;;;;1.32;100.00;99267.66;6313159;20;3657575;-40
2023/12/06 03:33:42;;;;;;;;;86.00;65.67;;;;;1.67;100.00;99260.38;6311057;20;3636754;-40
2023/12/06 03:36:13;;;;;;;;;80.33;58.00;;;;;1.65;100.00;99265.72;6313064;20;3650283;-41
2023/12/06 03:38:43;;;;;;;;;94.67;70.67;;;;;1.49;100.00;99260.03;6313504;20;3664896;-41
2023/12/06 03:41:13;;;;;;;;;85.33;65.00;;;;;1.33;100.00;99258.81;6313579;20;3642022;-41
2023/12/06 03:43:43;;;;;;;;;85.33;62.00;;;;;1.43;100.00;99252.31;6314235;20;3659696;-44
2023/12/06 03:46:31;;;;;;;;;91.00;70.00;;;;;1.26;100.00;99257.25;6312995;20;3656544;-43
2023/12/06 03:49:01;;;;;;;;;99.33;72.00;;;;;1.34;100.00;99254.38;6312655;20;3679514;-42
2023/12/06 03:51:31;;;;;;;;;98.00;72.00;;;;;1.07;100.00;99246.38;6310441;20;3670213;-41
2023/12/06 03:54:00;;;;;;;;;84.50;64.50;;;;;1.30;100.00;99248.31;6271752;20;2864995;-40
2023/12/06 03:56:30;;;;;;;;;103.33;72.67;;;;;1.36;100.00;99250.75;6279595;20;3685698;-41
2023/12/06 03:59:00;;;;;;;;;84.67;65.33;;;;;1.24;100.00;99252.03;6281294;20;3627377;-40
2023/12/06 04:01:30;;;;;;;;;74.33;55.33;;;;;1.64;100.00;99252.56;6313219;20;3640911;-40
2023/12/06 04:03:59;;;;;;;;;100.33;76.33;;;;;1.37;100.00;99247.22;6313307;20;3682572;-41
2023/12/06 04:06:28;;;;;;;;;70.50;54.50;;;;;1.44;100.00;99246.09;6276873;20;2869025;-42
2023/12/06 04:08:58;;;;;;;;;77.33;57.67;;;;;1.66;100.00;99245.41;6281267;20;3638809;-40
2023/12/06 04:11:28;;;;;;;;;78.33;59.33;;;;;1.64;100.00;99241.97;6312931;20;2893117;-41
2023/12/06 04:13:58;;;;;;;;;75.00;57.00;;;;;1.69;100.00;99240.03;6315561;20;3642983;-41
2023/12/06 04:16:30;;;;;;;;;74.00;56.67;;;;;1.84;100.00;99234.22;6310688;20;3635699;-41
2023/12/06 04:18:59;;;;;;;;;72.67;54.67;;;;;1.62;100.00;99243.78;6310840;20;3642968;-41
2023/12/06 04:21:29;;;;;;;;;83.33;62.33;;;;;1.50;100.00;99243.28;6313753;20;3623298;-41
2023/12/06 04:23:59;;;;;;;;;83.67;62.00;;;;;1.61;100.00;99236.78;6311423;20;3649266;-42
2023/12/06 04:26:29;;;;;;;;;85.00;62.67;;;;;1.17;100.00;99239.03;6313956;20;3652332;-41
2023/12/06 04:28:58;;;;;;;;;83.00;63.00;;;;;1.20;100.00;99241.59;6278854;20;2889949;-41
2023/12/06 04:31:28;;;;;;;;;76.33;58.67;;;;;1.79;100.00;99236.19;6313243;20;3634648;-40
2023/12/06 04:33:59;;;;;;;;;83.00;62.33;;;;;1.26;100.00;99226.41;6310963;20;3646072;-42
2023/12/06 04:36:28;;;;;;;;;79.33;56.67;;;;;1.32;100.00;99222.69;6312672;20;3641981;-42
2023/12/06 04:38:58;;;;;;;;;84.00;63.00;;;;;1.27;100.00;99225.47;6311348;20;3633765;-41
2023/12/06 04:41:28;;;;;;;;;86.33;65.33;;;;;1.34;100.00;99230.56;6313877;20;3645033;-41
2023/12/06 04:43:58;;;;;;;;;83.33;60.33;;;;;1.14;100.00;99228.56;6311429;20;3651280;-41
2023/12/06 04:46:27;;;;;;;;;84.67;60.33;;;;;1.60;100.00;99230.59;6310476;20;3663777;-42
2023/12/06 04:48:56;;;;;;;;;76.00;59.50;;;;;1.26;100.00;99228.16;6307883;20;2862782;-41
2023/12/06 04:51:26;;;;;;;;;77.33;57.67;;;;;1.49;100.00;99230.09;6282140;20;3633661;-40
2023/12/06 04:53:56;;;;;;;;;72.33;57.67;;;;;1.68;100.00;99235.66;6308363;20;2904661;-49
2023/12/06 04:56:25;;;;;;;;;79.33;60.00;;;;;1.64;100.00;99234.88;6311068;20;2889821;-49
2023/12/06 04:58:55;;;;;;;;;76.00;55.00;;;;;1.65;100.00;99243.69;6309445;20;3653457;-50
2023/12/06 05:01:25;;;;;;;;;74.67;57.67;;;;;1.68;100.00;99247.09;6310596;20;3629406;-53
2023/12/06 05:03:55;;;;;;;;;67.67;48.33;;;;;1.63;100.00;99238.44;6310970;20;3631499;-50
2023/12/06 05:06:25;;;;;;;;;81.33;59.33;;;;;1.71;100.00;99238.19;6311576;20;3649570;-51
2023/12/06 05:08:54;;;;;;;;;79.67;56.33;;;;;1.67;100.00;99234.78;6310337;20;3649194;-49
2023/12/06 05:11:27;;;;;;;;;74.00;53.00;;;;;1.54;100.00;99236.97;6309505;20;3645055;-49
2023/12/06 05:13:57;;;;;;;;;78.33;59.00;;;;;1.57;100.00;99237.78;6310721;20;2883769;-41
2023/12/06 05:16:27;;;;;;;;;82.67;60.33;;;;;1.30;100.00;99222.75;6306168;20;3641017;-41
2023/12/06 05:18:56;;;;;;;;;80.67;59.33;;;;;1.53;100.00;99219.38;6308746;20;2874329;-51
2023/12/06 05:21:26;;;;;;;;;75.00;55.33;;;;;1.69;100.00;99224.16;6312343;20;3633572;-49
2023/12/06 05:23:56;;;;;;;;;75.00;57.33;;;;;1.61;100.00;99226.19;6310724;20;2882078;-49
2023/12/06 05:26:26;;;;;;;;;81.67;58.33;;;;;1.50;100.00;99218.56;6311809;20;3651318;-48
2023/12/06 05:28:58;;;;;;;;;78.67;60.00;;;;;1.46;100.00;99212.53;6310844;20;2881569;-48
2023/12/06 05:31:27;;;;;;;;;76.33;60.00;;;;;1.52;100.00;99217.63;6309572;20;2873294;-47
2023/12/06 05:33:58;;;;;;;;;77.00;59.33;;;;;1.42;100.00;99213.56;6311947;20;2878510;-52
2023/12/06 05:36:27;;;;;;;;;78.67;59.67;;;;;1.45;100.00;99213.47;6309124;20;3633601;-51
2023/12/06 05:38:57;;;;;;;;;80.00;58.67;;;;;1.51;100.00;99209.75;6311875;20;3632541;-50
2023/12/06 05:41:27;;;;;;;;;79.33;58.67;;;;;1.53;100.00;99221.16;6310840;20;2894130;-51
2023/12/06 05:43:57;;;;;;;;;84.67;62.00;;;;;1.38;100.00;99219.00;6308760;20;3657541;-49
2023/12/06 05:46:26;;;;;;;;;83.00;61.67;;;;;1.46;100.00;99222.25;6308188;20;3654637;-49
2023/12/06 05:48:56;;;;;;;;;86.67;63.67;;;;;1.30;100.00;99217.44;6311640;20;3648255;-52
2023/12/06 05:51:26;;;;;;;;;81.00;61.67;;;;;1.35;100.00;99224.38;6308562;20;2880558;-49
2023/12/06 05:53:56;;;;;;;;;77.67;59.67;;;;;1.28;100.00;99229.84;6310637;20;3650302;-48
2023/12/06 05:56:25;;;;;;;;;73.67;57.00;;;;;1.33;100.00;99234.13;6312243;20;2886008;-51
2023/12/06 05:58:55;;;;;;;;;74.33;58.33;;;;;1.49;100.00;99228.31;6313219;20;2877342;-52
2023/12/06 06:01:25;;;;;;;;;72.67;56.00;;;;;1.37;100.00;99223.41;6312410;20;3642962;-39
2023/12/06 06:03:55;;;;;;;;;73.00;57.00;;;;;1.07;100.00;99223.44;6315663;20;2877544;-41
2023/12/06 06:06:25;;;;;;;;;71.33;55.33;;;;;1.34;100.00;99227.91;6317717;20;2884749;-40
2023/12/06 06:08:54;;;;;;;;;79.33;59.33;;;;;1.43;100.00;99228.50;6317582;20;3639822;-42
2023/12/06 06:11:24;;;;;;;;;81.67;61.00;;;;;1.06;100.00;99224.38;6316373;20;2886831;-41
2023/12/06 06:13:54;;;;;;;;;77.33;60.00;;;;;1.49;100.00;99227.44;6315654;20;2881724;-42
2023/12/06 06:16:24;;;;;;;;;79.00;55.33;;;;;1.52;100.00;99211.47;6310115;20;3641043;-41
2023/12/06 06:18:54;;;;;;;;;71.67;53.33;;;;;1.47;100.00;99219.53;6311914;20;2889972;-44
2023/12/06 06:21:24;;;;;;;;;80.67;62.67;;;;;1.27;100.00;99214.91;6315990;20;3645073;-41
2023/12/06 06:23:54;;;;;;;;;76.00;59.00;;;;;1.53;100.00;99222.00;6315893;20;3633637;-43
2023/12/06 06:26:23;;;;;;;;;67.00;54.00;;;;;1.63;100.00;99219.06;6316840;20;2868031;-46
2023/12/06 06:28:52;;;;;;;;;72.33;55.33;;;;;1.60;100.00;99232.38;6284606;20;2889954;-46
2023/12/06 06:31:22;;;;;;;;;77.67;56.33;;;;;1.43;100.00;99236.44;6315429;20;3652367;-48
2023/12/06 06:33:52;;;;;;;;;83.25;55.25;;;;;1.45;100.00;99237.28;6316737;20;3662853;-48
2023/12/06 06:36:22;;;;;;;;;77.00;60.00;;;;;1.47;100.00;99238.06;6314350;20;3635824;-47
2023/12/06 06:38:52;;;;;;;;;68.67;57.00;;;;;1.55;100.00;99235.16;6314058;20;2881779;-47
2023/12/06 06:41:24;;;;;;;;;67.50;55.00;;;;;1.71;100.00;99243.47;6314442;20;2869076;-47
2023/12/06 06:43:56;;;;;;;;;66.67;50.00;;;;;1.63;100.00;99241.06;6284187;20;2878378;-46
2023/12/06 06:46:25;;;;;;;;;73.00;54.67;;;;;1.38;100.00;99241.00;6309119;20;3653985;-47
2023/12/06 06:48:56;;;;;;;;;77.00;59.00;;;;;1.59;100.00;99241.25;6315367;20;2892050;-48
2023/12/06 06:51:36;;;;;;;;;75.67;55.67;;;;;1.82;100.00;99246.66;6316391;20;3622159;-47
2023/12/06 06:54:07;;;;;;;;;78.00;59.00;;;;;1.46;100.00;99246.91;6310779;20;3644016;-41
2023/12/06 06:56:37;;;;;;;;;74.00;57.33;;;;;1.78;100.00;99245.00;6314270;20;2890031;-40
2023/12/06 06:59:07;;;;;;;;;79.33;61.33;;;;;1.69;100.00;99255.91;6312644;20;3624210;-41
2023/12/06 07:01:36;;;;;;;;;70.50;58.00;;;;;1.68;100.00;99247.09;6315250;20;2865902;-41
2023/12/06 07:04:06;;;;;;;;;83.00;60.00;;;;;1.48;100.00;99255.69;6284136;20;3646097;-44
2023/12/06 07:06:36;;;;;;;;;78.00;57.67;;;;;1.32;100.00;99262.38;6312701;20;3634628;-50
2023/12/06 07:09:06;;;;;;;;;110.00;94.33;;;;;1.05;100.00;99259.66;6313546;20;3696160;-48
2023/12/06 07:11:36;;;;;;;;;70.67;56.00;;;;;1.05;100.00;99258.75;6278364;20;3624226;-46
2023/12/06 07:14:05;;;;;;;;;74.00;53.33;;;;;1.27;100.00;99259.00;6314420;20;3637762;-49
2023/12/06 07:16:35;;;;;;;;;75.33;58.67;;;;;1.75;100.00;99261.00;6310547;20;2879474;-47
2023/12/06 07:19:03;;;;;;;;;64.00;50.00;;;;;1.93;100.00;99257.75;6307065;20;2497270;-47
2023/12/06 07:21:33;;;;;;;;;76.00;54.67;;;;;2.05;100.00;99258.25;6284001;20;3651313;-49
2023/12/06 07:24:03;;;;;;;;;82.33;60.00;;;;;1.71;100.00;99264.66;6314475;20;3648221;-47
2023/12/06 07:26:33;;;;;;;;;70.67;56.00;;;;;2.07;100.00;99264.34;6309824;20;3624259;-46
2023/12/06 07:29:03;;;;;;;;;103.00;82.50;;;;;1.60;100.00;99262.34;6314545;20;4454579;-50
2023/12/06 07:31:32;;;;;;;;;70.00;53.00;;;;;2.15;100.00;99263.16;6312867;20;2880577;-54
2023/12/06 07:34:02;;;;;;;;;70.00;51.00;;;;;2.28;100.00;99260.97;6311347;20;2880629;-54
2023/12/06 07:36:46;;;;;;;;;67.50;51.50;;;;;2.39;100.00;99264.09;6307692;20;2873238;-52
2023/12/06 07:39:16;;;;;;;;;71.33;54.67;;;;;2.58;100.00;99268.75;6281760;20;2885808;-47
2023/12/06 07:41:46;;;;;;;;;70.00;54.00;;;;;2.66;100.00;99272.03;6313408;20;3626299;-49
2023/12/06 07:44:17;;;;;;;;;64.00;51.00;;;;;2.61;100.00;99268.66;6313381;20;2861809;-49
2023/12/06 07:46:48;;;;;;;;;69.67;53.67;;;;;2.51;100.00;99277.84;6283033;20;3627404;-51
2023/12/06 07:49:17;;;;;;;;;60.50;49.00;;;;;2.52;100.00;99279.56;6312455;20;2862770;-49
2023/12/06 07:51:46;;;;;;;;;73.33;56.00;;;;;2.60;100.00;99280.16;6280391;20;2877365;-48
2023/12/06 07:54:16;;;;;;;;;70.33;51.67;;;;;2.68;100.00;99280.75;6312570;20;3643184;-49
2023/12/06 07:56:46;;;;;;;;;54.67;42.00;;;;;2.54;100.00;99291.00;6309937;20;2870102;-50
2023/12/06 07:59:16;;;;;;;;;73.00;52.33;;;;;2.70;100.00;99288.66;6312265;20;3648390;-50
2023/12/06 08:01:45;;;;;;;;;64.00;50.00;;;;;2.74;100.00;99298.22;6310889;20;2850297;-49
2023/12/06 08:04:15;;;;;;;;;67.00;51.50;;;;;2.55;100.00;99290.06;6280198;20;2899371;-46
2023/12/06 08:06:45;;;;;;;;;63.00;46.00;;;;;2.67;100.00;99288.78;6281616;20;2861808;-48
2023/12/06 08:09:17;;;;;;;;;56.00;45.00;;;;;2.62;100.00;99280.97;6309017;20;2848202;-48
2023/12/06 08:11:47;;;;;;;;;63.67;50.33;;;;;2.46;100.00;99274.50;6278640;20;2873248;-53
2023/12/06 08:14:17;;;;;;;;;59.33;47.00;;;;;2.73;100.00;99273.50;6310581;20;2861824;-48
2023/12/06 08:16:47;;;;;;;;;70.00;53.00;;;;;2.77;100.00;99274.28;6313214;20;3632555;-50
2023/12/06 08:19:16;;;;;;;;;65.00;50.00;;;;;2.73;100.00;99277.94;6309276;20;2873261;-49
2023/12/06 08:21:45;;;;;;;;;54.00;47.00;;;;;2.75;100.00;99276.13;6281517;20;2858650;-48
2023/12/06 08:24:14;;;;;;;;;66.50;49.00;;;;;2.68;100.00;99275.44;6283544;20;2876763;-49
2023/12/06 08:26:43;;;;;;;;;68.67;49.67;;;;;2.79;100.00;99262.69;6282033;20;2875406;-49
2023/12/06 08:29:13;;;;;;;;;65.33;49.00;;;;;2.87;100.00;99262.41;6311440;20;2873333;-47
2023/12/06 08:31:42;;;;;;;;;61.00;51.50;;;;;2.97;100.00;99254.97;6312181;20;2849385;-49
2023/12/06 08:34:12;;;;;;;;;64.33;48.67;;;;;2.91;100.00;99253.41;6279981;20;2864866;-47
2023/12/06 08:36:42;;;;;;;;;65.33;47.67;;;;;2.90;100.00;99251.69;6312467;20;2883637;-49
2023/12/06 08:39:11;;;;;;;;;57.50;44.00;;;;;3.12;100.00;99254.38;6312023;20;2867113;-51
2023/12/06 08:41:39;;;;;;;;;62.00;49.00;;;;;2.90;100.00;99250.81;6280254;20;2859694;-48
2023/12/06 08:44:09;;;;;;;;;73.33;54.00;;;;;3.07;100.00;99245.75;6280431;20;3641962;-53
2023/12/06 08:46:39;;;;;;;;;70.33;55.00;;;;;2.98;100.00;99251.41;6311622;20;2889944;-52
2023/12/06 08:49:08;;;;;;;;;60.50;49.00;;;;;2.94;100.00;99253.28;6313379;20;2863884;-50
2023/12/06 08:51:38;;;;;;;;;70.00;53.00;;;;;3.00;100.00;99252.19;6283316;20;3647161;-47
2023/12/06 08:54:09;;;;;;;;;60.00;45.00;;;;;2.93;100.00;99248.91;6310584;20;2857593;-49
2023/12/06 08:56:38;;;;;;;;;69.00;51.67;;;;;3.01;100.00;99246.84;6279754;20;2891984;-50
2023/12/06 08:59:07;;;;;;;;;67.00;55.50;;;;;3.01;100.00;99238.03;6312737;20;2861773;-49
2023/12/06 09:01:37;;;;;;;;;74.00;54.00;;;;;3.16;100.00;99229.50;6282840;20;3640972;-49
2023/12/06 09:04:09;;;;;;;;;71.00;56.00;;;;;2.83;100.00;99231.63;6310669;20;3636800;-48
2023/12/06 09:06:39;;;;;;;;;69.67;53.00;;;;;3.05;100.00;99227.25;6313143;20;3638752;-49
2023/12/06 09:09:11;;;;;;;;;78.67;58.00;;;;;3.12;100.00;99227.88;6311129;20;3633552;-49
2023/12/06 09:11:40;;;;;;;;;78.33;61.67;;;;;2.95;100.00;99230.28;6315387;20;2876331;-52
2023/12/06 09:14:10;;;;;;;;;69.33;56.00;;;;;3.04;100.00;99224.66;6313734;20;2877470;-50
2023/12/06 09:16:40;;;;;;;;;81.67;62.00;;;;;2.97;100.00;99220.50;6312241;20;3631899;-51
2023/12/06 09:19:10;;;;;;;;;68.67;53.33;;;;;3.34;100.00;99224.38;6313472;20;3622230;-51
2023/12/06 09:21:46;;;;;;;;;76.33;61.33;;;;;2.91;100.00;99221.59;6312305;20;3627387;-47
2023/12/06 09:24:16;;;;;;;;;106.00;93.67;;;;;2.76;100.00;99225.66;6310963;20;3690883;-48
2023/12/06 09:26:46;;;;;;;;;77.33;60.67;;;;;3.18;100.00;99235.56;6313229;20;2886860;-51
2023/12/06 09:29:17;;;;;;;;;73.50;56.50;;;;;3.48;100.00;99232.66;6314181;20;3510740;-47
2023/12/06 09:31:47;;;;;;;;;79.33;60.00;;;;;3.41;100.00;99220.56;6309113;20;3649207;-45
2023/12/06 09:34:17;;;;;;;;;88.00;64.00;;;;;3.29;100.00;99222.78;6281278;20;3650250;-42
2023/12/06 09:37:06;;;;;;;;;97.33;72.33;;;;;3.42;100.00;99230.22;6312503;20;3669143;-45
2023/12/06 09:39:36;;;;;;;;;81.67;59.67;;;;;3.37;100.00;99229.53;6279527;20;3647225;-42
2023/12/06 09:42:06;;;;;;;;;66.00;50.00;;;;;3.50;100.00;99233.44;6313449;20;3640885;-45
2023/12/06 09:44:42;;;;;;;;;86.67;64.67;;;;;3.63;100.00;99226.72;6310889;20;3638810;-43
2023/12/06 09:47:12;;;;;;;;;85.33;64.67;;;;;3.85;100.00;99225.84;6312239;20;3645076;-46
2023/12/06 09:49:43;;;;;;;;;65.67;51.33;;;;;3.87;100.00;99226.63;6310185;20;2867992;-43
2023/12/06 09:52:21;;;;;;;;;71.67;53.67;;;;;3.51;100.00;99232.53;6312402;20;3628819;-42
2023/12/06 09:54:51;;;;;;;;;63.67;48.33;;;;;3.91;100.00;99222.94;6313579;20;3636816;-43
2023/12/06 09:57:22;;;;;;;;;69.33;54.00;;;;;3.99;100.00;99220.81;6313495;20;2872260;-44
2023/12/06 09:59:52;;;;;;;;;62.00;50.67;;;;;3.92;100.00;99220.22;6309694;20;2879530;-42
2023/12/06 10:02:20;;;;;;;;;68.00;53.00;;;;;4.01;100.00;99218.97;6312362;20;2870092;-44
2023/12/06 10:04:50;;;;;;;;;71.33;52.00;;;;;4.27;100.00;99222.31;6280209;20;2869238;-42
2023/12/06 10:07:20;;;;;;;;;78.33;59.67;;;;;4.35;100.00;99222.84;6311855;20;2889934;-44
2023/12/06 10:09:51;;;;;;;;;69.00;50.00;;;;;4.15;100.00;99216.56;6308593;20;4388764;-45
2023/12/06 10:12:21;;;;;;;;;71.00;52.67;;;;;4.01;100.00;99218.09;6310820;20;3635659;-43
2023/12/06 10:14:59;;;;;;;;;74.00;55.33;;;;;4.09;100.00;99222.16;6313814;20;3647216;-44
2023/12/06 10:17:29;;;;;;;;;70.00;53.67;;;;;3.95;100.00;99221.88;6311592;20;2862940;-44
2023/12/06 10:19:59;;;;;;;;;71.33;54.00;;;;;4.05;100.00;99215.22;6307207;20;3647146;-42
2023/12/06 10:22:29;;;;;;;;;73.00;55.67;;;;;3.96;100.00;99215.63;6311880;20;3631500;-45
2023/12/06 10:25:00;;;;;;;;;75.67;60.00;;;;;3.73;100.00;99217.44;6308750;20;3627314;-43
2023/12/06 10:27:34;;;;;;;;;70.00;56.67;;;;;3.81;100.00;99216.28;6310742;20;2874259;-44
2023/12/06 10:30:06;;;;;;;;;73.00;55.00;;;;;3.94;100.00;99220.13;6310792;20;3641952;-47
2023/12/06 10:32:36;;;;;;;;;84.67;62.67;;;;;3.69;100.00;99226.47;6307599;20;3647135;-43
2023/12/06 10:35:09;;;;;;;;;102.67;83.67;;;;;3.69;100.00;99220.31;6311852;20;3687788;-43
2023/12/06 10:37:40;;;;;;;;;87.33;61.00;;;;;3.49;100.00;99215.81;6277122;20;3632548;-43
2023/12/06 10:40:12;;;;;;;;;81.00;62.00;;;;;3.45;100.00;99214.19;6307795;20;3646162;-45
2023/12/06 10:42:52;;;;;;;;;85.33;61.00;;;;;3.64;100.00;99224.94;6312611;20;3645119;-43
2023/12/06 10:45:22;;;;;;;;;73.67;55.33;;;;;3.61;100.00;99225.94;6282645;20;3643041;-42
2023/12/06 10:47:55;;;;;;;;;71.67;56.33;;;;;3.65;100.00;99222.22;6317250;20;3618013;-43
2023/12/06 10:50:25;;;;;;;;;73.00;53.67;;;;;3.47;100.00;99222.94;6313364;20;3629652;-46
2023/12/06 10:52:56;;;;;;;;;65.67;50.67;;;;;3.38;100.00;99220.69;6316293;20;3621212;-43
2023/12/06 10:55:32;;;;;;;;;71.00;54.33;;;;;3.45;100.00;99220.38;6313841;20;3636737;-42
2023/12/06 10:58:01;;;;;;;;;59.50;49.00;;;;;3.29;100.00;99220.13;6314226;20;2862862;-42
2023/12/06 11:00:32;;;;;;;;;68.33;52.00;;;;;3.38;100.00;99218.03;6282338;20;2879964;-42
2023/12/06 11:03:03;;;;;;;;;73.00;57.00;;;;;3.30;100.00;99211.22;6313006;20;2881524;-43
2023/12/06 11:05:41;;;;;;;;;79.33;60.00;;;;;3.50;100.00;99228.13;6314071;20;3637850;-48
2023/12/06 11:08:27;;;;;;;;;85.00;61.67;;;;;3.59;100.00;99219.81;6315662;20;3644034;-47
2023/12/06 11:11:53;;;;;;;;;86.33;65.00;;;;;3.33;100.00;99210.25;6309630;20;3648212;-50
2023/12/06 11:14:50;;;;;;;;;86.33;66.33;;;;;3.38;100.00;99207.41;6313757;20;3635095;-47
2023/12/06 11:17:45;;;;;;;;;80.67;58.67;;;;;3.34;100.00;99204.00;6314824;20;3657637;-47